createdAt,value
2023-03-23T00:00:52.349Z,68.74
2023-03-23T00:03:24.687Z,68.88
2023-03-23T00:05:55.704Z,68.91
2023-03-23T00:08:25.969Z,68.95
2023-03-23T00:11:00.214Z,69.17
2023-03-23T00:13:32.492Z,69.04
2023-03-23T00:16:04.048Z,68.97
2023-03-23T00:18:34.735Z,68.99
2023-03-23T00:21:07.303Z,69.24
2023-03-23T00:23:37.618Z,69.14
2023-03-23T00:26:08.099Z,69.08
2023-03-23T00:28:38.502Z,69.16
2023-03-23T00:31:10.859Z,69.19
2023-03-23T00:33:44.060Z,69.18
2023-03-23T00:36:15.654Z,69.14
2023-03-23T00:38:47.713Z,69.25
2023-03-23T00:41:18.786Z,69.07
2023-03-23T00:43:49.031Z,69.44
2023-03-23T00:46:19.715Z,69.55
2023-03-23T00:48:50.824Z,68.99
2023-03-23T00:51:22.954Z,69.30
2023-03-23T00:53:53.640Z,69.31
2023-03-23T00:56:24.049Z,69.07
2023-03-23T00:58:54.120Z,69.25
2023-03-23T01:01:24.563Z,69.28
2023-03-23T01:03:56.640Z,69.22
2023-03-23T01:06:26.833Z,69.02
2023-03-23T01:08:57.310Z,69.14
2023-03-23T01:11:28.752Z,69.16
2023-03-23T01:13:59.475Z,69.06
2023-03-23T01:16:29.880Z,68.84
2023-03-23T01:19:00.325Z,68.74
2023-03-23T01:21:32.594Z,69.05
2023-03-23T01:24:02.965Z,69.19
2023-03-23T01:26:33.756Z,68.85
2023-03-23T01:29:04.213Z,68.91
2023-03-23T01:31:35.070Z,68.72
2023-03-23T01:34:05.700Z,68.63
2023-03-23T01:36:36.417Z,69.06
2023-03-23T01:39:08.944Z,68.93
2023-03-23T01:41:39.612Z,68.80
2023-03-23T01:44:28.056Z,68.76
2023-03-23T01:47:16.721Z,68.78
2023-03-23T01:49:52.826Z,69.07
2023-03-23T01:52:29.209Z,68.80
2023-03-23T01:55:06.926Z,68.98
2023-03-23T01:57:38.024Z,69.03
2023-03-23T02:00:18.250Z,69.23
2023-03-23T02:02:56.489Z,68.96
2023-03-23T02:05:41.447Z,68.73
2023-03-23T02:08:21.780Z,68.72
2023-03-23T02:10:52.775Z,68.26
2023-03-23T02:13:24.000Z,68.33
2023-03-23T02:15:57.378Z,68.43
2023-03-23T02:18:57.413Z,68.20
2023-03-23T02:21:28.259Z,68.15
2023-03-23T02:24:36.901Z,68.01
2023-03-23T02:27:07.476Z,67.75
2023-03-23T02:29:49.364Z,67.88
2023-03-23T02:32:42.947Z,67.80
2023-03-23T02:35:36.885Z,67.69
2023-03-23T02:38:21.717Z,67.92
2023-03-23T02:40:54.237Z,67.54
2023-03-23T02:43:28.183Z,67.42
2023-03-23T02:46:10.425Z,67.30
2023-03-23T02:48:43.434Z,67.37
2023-03-23T02:54:02.958Z,67.36
2023-03-23T02:57:40.413Z,67.12
2023-03-23T03:01:24.830Z,67.14
2023-03-23T03:04:20.675Z,66.91
2023-03-23T03:07:06.008Z,67.10
2023-03-23T03:10:03.476Z,67.16
2023-03-23T03:12:48.761Z,66.65
2023-03-23T03:15:31.770Z,66.61
2023-03-23T03:18:31.677Z,66.63
2023-03-23T03:21:23.639Z,66.72
2023-03-23T03:24:14.809Z,66.42
2023-03-23T03:26:50.849Z,66.28
2023-03-23T03:32:34.421Z,66.33
2023-03-23T03:35:07.118Z,66.18
2023-03-23T03:37:40.661Z,66.16
2023-03-23T03:40:15.484Z,65.96
2023-03-23T03:43:05.004Z,66.09
2023-03-23T03:45:53.929Z,66.36
2023-03-23T03:51:10.221Z,65.85
2023-03-23T03:53:44.837Z,65.50
2023-03-23T03:56:35.660Z,65.77
2023-03-23T03:59:24.280Z,65.34
2023-03-23T04:02:16.991Z,65.45
2023-03-23T04:05:06.883Z,65.16
2023-03-23T04:10:32.637Z,65.43
2023-03-23T04:13:22.170Z,65.26
2023-03-23T04:16:14.011Z,64.98
2023-03-23T04:19:02.626Z,64.79
2023-03-23T04:21:52.382Z,64.88
2023-03-23T04:24:56.341Z,64.94
2023-03-23T04:27:21.002Z,64.54
2023-03-23T04:29:53.088Z,64.42
2023-03-23T04:32:46.676Z,64.70
2023-03-23T04:35:35.350Z,64.78
2023-03-23T04:38:23.666Z,64.72
2023-03-23T04:41:12.231Z,64.73
2023-03-23T04:43:49.242Z,64.57
2023-03-23T04:46:42.645Z,64.38
2023-03-23T04:49:17.631Z,64.17
2023-03-23T04:52:09.730Z,64.32
2023-03-23T04:54:47.986Z,64.11
2023-03-23T04:57:19.332Z,64.04
2023-03-23T05:00:16.277Z,64.02
2023-03-23T05:03:04.944Z,63.79
2023-03-23T05:05:38.173Z,63.91
2023-03-23T05:08:30.243Z,63.70
2023-03-23T05:11:18.907Z,63.63
2023-03-23T05:13:49.529Z,63.80
2023-03-23T05:16:39.961Z,63.74
2023-03-23T05:19:17.387Z,63.58
2023-03-23T05:21:49.268Z,63.45
2023-03-23T05:24:21.073Z,63.45
2023-03-23T05:27:11.353Z,63.40
2023-03-23T05:29:46.835Z,63.55
2023-03-23T05:32:17.885Z,63.41
2023-03-23T05:34:49.878Z,63.44
2023-03-23T05:37:19.892Z,63.21
2023-03-23T05:39:56.826Z,63.09
2023-03-23T05:42:48.936Z,63.17
2023-03-23T05:45:38.367Z,63.04
2023-03-23T05:48:09.391Z,63.02
2023-03-23T05:50:39.778Z,62.89
2023-03-23T05:53:11.345Z,62.98
2023-03-23T05:55:43.919Z,62.93
2023-03-23T05:58:25.408Z,62.77
2023-03-23T06:00:57.078Z,63.04
2023-03-23T06:03:31.826Z,62.75
2023-03-23T06:06:08.668Z,62.88
2023-03-23T06:08:53.628Z,62.83
2023-03-23T06:11:37.496Z,63.09
2023-03-23T06:14:27.249Z,62.92
2023-03-23T06:16:58.647Z,62.88
2023-03-23T06:19:30.302Z,62.90
2023-03-23T06:22:18.893Z,63.00
2023-03-23T06:25:10.627Z,63.05
2023-03-23T06:27:44.638Z,62.95
2023-03-23T06:30:18.587Z,62.78
2023-03-23T06:32:51.219Z,62.80
2023-03-23T06:35:32.286Z,62.91
2023-03-23T06:38:20.705Z,62.87
2023-03-23T06:40:58.898Z,62.70
2023-03-23T06:58:22.898Z,62.43
2023-03-23T07:01:00.147Z,62.25
2023-03-23T07:09:18.696Z,62.32
2023-03-23T07:11:50.918Z,61.96
2023-03-23T07:17:16.414Z,62.17
2023-03-23T07:20:08.581Z,62.44
2023-03-23T07:22:39.239Z,62.15
2023-03-23T07:28:17.466Z,62.20
2023-03-23T07:31:05.933Z,61.96
2023-03-23T07:33:36.719Z,62.06
2023-03-23T07:36:25.441Z,61.75
2023-03-23T07:39:13.949Z,61.84
2023-03-23T07:42:02.497Z,61.70
2023-03-23T07:44:45.721Z,61.79
2023-03-23T07:47:17.423Z,61.80
2023-03-23T07:49:51.002Z,61.61
2023-03-23T07:52:40.160Z,61.53
2023-03-23T07:55:20.644Z,61.33
2023-03-23T07:58:04.493Z,61.48
2023-03-23T08:00:36.316Z,61.41
2023-03-23T08:03:25.070Z,61.38
2023-03-23T08:06:13.711Z,61.16
2023-03-23T08:09:03.747Z,61.29
2023-03-23T08:11:52.488Z,61.24
2023-03-23T08:14:55.898Z,61.01
2023-03-23T08:20:45.327Z,60.67
2023-03-23T08:23:36.098Z,60.56
2023-03-23T08:26:25.591Z,60.32
2023-03-23T08:29:14.650Z,60.18
2023-03-23T08:32:03.018Z,60.25
2023-03-23T08:34:59.566Z,59.87
2023-03-23T08:37:48.988Z,59.75
2023-03-23T08:40:40.253Z,59.74
2023-03-23T08:43:36.407Z,59.20
2023-03-23T08:46:35.648Z,59.39
2023-03-23T08:49:19.527Z,59.10
2023-03-23T08:52:06.956Z,59.07
2023-03-23T08:54:54.955Z,58.76
2023-03-23T08:57:50.573Z,58.50
2023-03-23T09:00:34.052Z,58.25
2023-03-23T09:03:22.963Z,58.12
2023-03-23T09:06:14.529Z,58.17
2023-03-23T09:08:48.966Z,58.27
2023-03-23T09:11:19.534Z,58.13
2023-03-23T09:14:09.349Z,58.21
2023-03-23T09:16:39.668Z,58.19
2023-03-23T09:19:12.369Z,58.03
2023-03-23T09:22:00.752Z,57.95
2023-03-23T09:24:31.321Z,58.11
2023-03-23T09:27:02.163Z,57.82
2023-03-23T09:29:32.528Z,57.90
2023-03-23T09:32:03.470Z,57.87
2023-03-23T09:37:20.270Z,58.03
2023-03-23T09:40:14.632Z,57.55
2023-03-23T09:43:02.784Z,57.41
2023-03-23T09:45:43.338Z,57.73
2023-03-23T09:48:37.229Z,57.48
2023-03-23T09:54:38.254Z,57.42
2023-03-23T09:57:18.359Z,56.90
2023-03-23T10:00:27.651Z,56.97
2023-03-23T10:03:29.688Z,56.91
2023-03-23T10:06:00.150Z,56.95
2023-03-23T10:08:58.684Z,56.96
2023-03-23T10:11:44.166Z,56.95
2023-03-23T10:14:32.290Z,57.15
2023-03-23T10:20:40.979Z,56.99
2023-03-23T10:23:56.861Z,57.04
2023-03-23T10:27:00.418Z,57.24
2023-03-23T10:29:35.775Z,57.14
2023-03-23T10:35:37.870Z,57.51
2023-03-23T10:38:28.158Z,57.39
2023-03-23T10:41:22.491Z,57.51
2023-03-23T10:43:53.210Z,57.83
2023-03-23T10:46:48.134Z,57.70
2023-03-23T10:49:27.376Z,57.67
2023-03-23T10:55:21.119Z,57.95
2023-03-23T10:58:07.454Z,57.94
2023-03-23T11:00:50.830Z,57.78
2023-03-23T11:03:29.788Z,57.87
2023-03-23T11:06:03.288Z,58.06
2023-03-23T11:08:38.017Z,57.71
2023-03-23T11:11:13.556Z,57.91
2023-03-23T11:13:47.836Z,57.92
2023-03-23T11:16:38.938Z,57.99
2023-03-23T11:19:25.869Z,58.07
2023-03-23T11:22:26.986Z,58.05
2023-03-23T11:25:18.198Z,58.42
2023-03-23T11:27:49.620Z,58.55
2023-03-23T11:30:30.808Z,58.41
2023-03-23T11:33:06.365Z,58.49
2023-03-23T11:35:36.857Z,58.63
2023-03-23T11:38:09.724Z,58.69
2023-03-23T11:41:00.547Z,58.66
2023-03-23T11:43:30.946Z,58.66
2023-03-23T11:46:48.198Z,58.91
2023-03-23T11:52:58.885Z,59.30
2023-03-23T11:55:35.651Z,59.27
2023-03-23T11:58:15.758Z,59.39
2023-03-23T12:00:51.965Z,59.74
2023-03-23T12:03:50.032Z,59.85
2023-03-23T12:06:34.728Z,60.21
2023-03-23T12:09:50.369Z,60.18
2023-03-23T12:12:34.189Z,60.39
2023-03-23T12:15:29.895Z,60.28
2023-03-23T12:18:20.338Z,60.54
2023-03-23T12:20:56.627Z,60.42
2023-03-23T12:23:34.233Z,60.54
2023-03-23T12:26:49.783Z,60.55
2023-03-23T12:29:35.347Z,60.67
2023-03-23T12:32:36.957Z,60.89
2023-03-23T12:35:29.800Z,60.76
2023-03-23T12:38:45.717Z,60.60
2023-03-23T12:41:22.311Z,60.68
2023-03-23T12:44:02.520Z,60.88
2023-03-23T12:46:45.888Z,61.33
2023-03-23T12:49:25.983Z,61.42
2023-03-23T12:52:39.315Z,61.86
2023-03-23T12:55:40.845Z,62.60
2023-03-23T12:58:20.358Z,63.08
2023-03-23T13:01:06.397Z,63.00
2023-03-23T13:04:11.591Z,63.13
2023-03-23T13:06:50.488Z,63.40
2023-03-23T13:09:52.137Z,63.55
2023-03-23T13:12:24.243Z,63.73
2023-03-23T13:15:28.023Z,63.91
2023-03-23T13:18:12.789Z,63.87
2023-03-23T13:21:15.055Z,64.01
2023-03-23T13:23:57.146Z,64.24
2023-03-23T13:26:28.423Z,64.26
2023-03-23T13:29:21.851Z,64.51
2023-03-23T13:31:53.504Z,64.43
2023-03-23T13:34:28.675Z,64.44
2023-03-23T13:37:08.168Z,64.66
2023-03-23T13:39:52.461Z,64.34
2023-03-23T13:42:26.225Z,63.86
2023-03-23T13:44:56.626Z,63.79
2023-03-23T13:47:27.233Z,63.68
2023-03-23T13:50:00.533Z,63.36
2023-03-23T13:52:53.109Z,63.80
2023-03-23T13:55:46.597Z,63.54
2023-03-23T13:58:27.364Z,63.68
2023-03-23T14:01:19.775Z,63.50
2023-03-23T14:03:56.146Z,63.65
2023-03-23T14:06:30.306Z,63.55
2023-03-23T14:09:40.283Z,63.68
2023-03-23T14:12:23.329Z,64.15
2023-03-23T14:15:33.375Z,64.42
2023-03-23T14:18:07.610Z,64.48
2023-03-23T14:20:43.406Z,64.92
2023-03-23T14:23:21.494Z,65.42
2023-03-23T14:26:21.655Z,65.31
2023-03-23T14:28:57.020Z,65.12
2023-03-23T14:31:30.444Z,65.54
2023-03-23T14:34:32.709Z,65.74
2023-03-23T14:37:21.446Z,66.09
2023-03-23T14:40:15.774Z,65.97
2023-03-23T14:42:46.420Z,65.89
2023-03-23T14:45:20.464Z,65.67
2023-03-23T14:47:58.081Z,65.69
2023-03-23T14:50:57.962Z,66.32
2023-03-23T14:53:46.856Z,65.83
2023-03-23T14:56:20.103Z,66.14
2023-03-23T14:58:52.191Z,66.10
2023-03-23T15:04:23.586Z,66.27
2023-03-23T15:07:13.594Z,66.36
2023-03-23T15:09:47.465Z,66.29
2023-03-23T15:12:29.882Z,65.84
2023-03-23T15:15:04.982Z,65.78
2023-03-23T15:20:47.414Z,65.70
2023-03-23T15:23:36.673Z,65.83
2023-03-23T15:26:28.623Z,65.74
2023-03-23T15:29:26.924Z,65.72
2023-03-23T15:31:59.006Z,66.06
2023-03-23T15:34:44.250Z,66.14
2023-03-23T15:37:35.305Z,66.23
2023-03-23T15:40:26.963Z,66.24
2023-03-23T15:43:39.845Z,66.53
2023-03-23T15:46:14.067Z,66.25
2023-03-23T15:48:51.865Z,66.62
2023-03-23T15:54:27.193Z,66.40
2023-03-23T15:57:15.746Z,66.72
2023-03-23T15:59:46.086Z,66.55
2023-03-23T16:02:25.126Z,66.79
2023-03-23T16:05:15.932Z,67.01
2023-03-23T16:07:46.304Z,66.54
2023-03-23T16:10:24.949Z,66.81
2023-03-23T16:12:55.475Z,66.84
2023-03-23T16:15:25.833Z,66.64
2023-03-23T16:17:56.212Z,66.49
2023-03-23T16:20:27.746Z,66.77
2023-03-23T16:22:58.308Z,66.71
2023-03-23T16:25:28.819Z,66.48
2023-03-23T16:28:18.509Z,66.51
2023-03-23T16:30:49.370Z,66.42
2023-03-23T16:33:19.814Z,66.47
2023-03-23T16:35:50.458Z,66.22
2023-03-23T16:38:21.378Z,66.27
2023-03-23T16:40:52.009Z,66.48
2023-03-23T16:43:23.522Z,66.38
2023-03-23T16:45:58.998Z,66.24
2023-03-23T16:51:15.054Z,66.49
2023-03-23T16:53:45.566Z,66.49
2023-03-23T16:56:36.943Z,66.53
2023-03-23T16:59:07.842Z,66.13
2023-03-23T17:01:38.459Z,66.33
2023-03-23T17:04:09.371Z,66.12
2023-03-23T17:06:59.808Z,66.27
2023-03-23T17:09:51.487Z,66.22
2023-03-23T17:12:22.550Z,66.40
2023-03-23T17:14:52.968Z,66.25
2023-03-23T17:17:23.354Z,66.36
2023-03-23T17:19:54.365Z,66.34
2023-03-23T17:22:25.404Z,66.41
2023-03-23T17:24:59.323Z,66.50
2023-03-23T17:27:30.113Z,66.33
2023-03-23T17:30:00.618Z,66.38
2023-03-23T17:32:34.284Z,66.51
2023-03-23T17:35:04.905Z,66.52
2023-03-23T17:37:39.366Z,66.54
2023-03-23T17:40:12.708Z,66.46
2023-03-23T17:43:00.862Z,66.52
2023-03-23T17:45:31.724Z,66.74
2023-03-23T17:48:02.077Z,66.73
2023-03-23T17:50:51.994Z,66.85
2023-03-23T17:56:26.386Z,66.97
2023-03-23T17:58:56.864Z,67.01
2023-03-23T18:01:27.749Z,66.99
2023-03-23T18:03:58.172Z,66.97
2023-03-23T18:06:28.742Z,67.26
2023-03-23T18:08:59.050Z,66.83
2023-03-23T18:11:30.287Z,67.24
2023-03-23T18:14:18.804Z,67.11
2023-03-23T18:16:49.721Z,67.08
2023-03-23T18:19:20.065Z,67.09
2023-03-23T18:21:50.336Z,66.99
2023-03-23T18:24:20.488Z,67.11
2023-03-23T18:26:50.923Z,67.18
2023-03-23T18:29:21.339Z,67.06
2023-03-23T18:31:51.610Z,67.30
2023-03-23T18:34:21.939Z,67.30
2023-03-23T18:36:52.211Z,67.33
2023-03-23T18:39:22.530Z,67.18
2023-03-23T18:41:52.900Z,67.17
2023-03-23T18:44:24.966Z,67.15
2023-03-23T18:46:55.368Z,67.34
2023-03-23T18:49:26.192Z,67.36
2023-03-23T18:52:14.423Z,67.49
2023-03-23T18:54:47.600Z,67.41
2023-03-23T18:57:20.411Z,67.40
2023-03-23T18:59:50.839Z,67.69
2023-03-23T19:02:22.626Z,67.65
2023-03-23T19:04:53.634Z,67.61
2023-03-23T19:07:24.065Z,67.52
2023-03-23T19:09:54.230Z,67.90
2023-03-23T19:12:25.559Z,67.67
2023-03-23T19:15:13.919Z,67.92
2023-03-23T19:17:44.554Z,68.03
2023-03-23T19:20:26.938Z,67.80
2023-03-23T19:23:06.727Z,67.76
2023-03-23T19:25:37.155Z,67.61
2023-03-23T19:30:45.873Z,67.77
2023-03-23T19:33:17.093Z,67.53
2023-03-23T19:36:12.254Z,67.67
2023-03-23T19:38:43.767Z,67.80
2023-03-23T19:41:14.134Z,67.77
2023-03-23T19:43:45.759Z,67.70
2023-03-23T19:46:16.813Z,67.80
2023-03-23T19:48:47.151Z,67.75
2023-03-23T19:51:20.941Z,67.83
2023-03-23T19:54:10.315Z,68.00
2023-03-23T19:56:40.804Z,67.76
2023-03-23T19:59:13.930Z,67.65
2023-03-23T20:01:45.020Z,67.79
2023-03-23T20:07:02.793Z,67.86
2023-03-23T20:09:51.902Z,67.77
2023-03-23T20:12:22.338Z,67.87
2023-03-23T20:14:53.140Z,68.03
2023-03-23T20:17:23.427Z,68.21
2023-03-23T20:19:54.007Z,68.36
2023-03-23T20:23:02.224Z,68.26
2023-03-23T20:25:51.350Z,68.21
2023-03-23T20:28:21.711Z,68.19
2023-03-23T20:31:18.888Z,68.13
2023-03-23T20:33:42.392Z,68.03
2023-03-23T20:36:13.493Z,68.16
2023-03-23T20:38:45.080Z,68.10
2023-03-23T20:44:22.124Z,68.05
2023-03-23T20:46:54.062Z,68.35
2023-03-23T20:49:25.371Z,68.40
2023-03-23T20:51:57.179Z,68.45
2023-03-23T20:54:27.581Z,68.19
2023-03-23T20:57:00.924Z,68.58
2023-03-23T20:59:31.537Z,68.52
2023-03-23T21:02:04.630Z,68.25
2023-03-23T21:07:20.626Z,68.32
2023-03-23T21:10:09.672Z,68.59
2023-03-23T21:12:40.468Z,68.47
2023-03-23T21:15:10.937Z,68.47
2023-03-23T21:17:41.026Z,68.84
2023-03-23T21:20:13.442Z,68.78
2023-03-23T21:23:03.853Z,68.54
2023-03-23T21:25:37.015Z,68.69
2023-03-23T21:28:09.480Z,68.50
2023-03-23T21:30:39.858Z,68.88
2023-03-23T21:33:11.310Z,68.56
2023-03-23T21:35:42.196Z,69.12
2023-03-23T21:38:16.735Z,68.92
2023-03-23T21:40:47.315Z,68.89
2023-03-23T21:43:19.165Z,68.97
2023-03-23T21:45:50.534Z,69.17
2023-03-23T21:48:20.818Z,68.88
2023-03-23T21:50:52.819Z,69.03
2023-03-23T21:53:25.233Z,69.05
2023-03-23T21:56:14.563Z,68.86
2023-03-23T21:59:04.082Z,69.08
2023-03-23T22:01:34.238Z,69.11
2023-03-23T22:04:04.412Z,69.25
2023-03-23T22:06:36.741Z,68.99
2023-03-23T22:09:12.041Z,69.07
2023-03-23T22:11:43.362Z,69.13
2023-03-23T22:14:14.949Z,69.38
2023-03-23T22:16:45.579Z,69.56
2023-03-23T22:19:16.085Z,69.44
2023-03-23T22:21:46.714Z,69.63
2023-03-23T22:24:17.140Z,69.83
2023-03-23T22:26:47.791Z,69.53
2023-03-23T22:29:19.442Z,70.01
2023-03-23T22:31:50.097Z,70.13
2023-03-23T22:34:21.050Z,70.10
2023-03-23T22:36:51.560Z,70.16
2023-03-23T22:39:21.991Z,70.25
2023-03-23T22:41:52.725Z,70.42
2023-03-23T22:44:23.130Z,70.26
2023-03-23T22:46:54.687Z,70.61
2023-03-23T22:49:25.191Z,70.28
2023-03-23T22:51:55.976Z,70.22
2023-03-23T22:54:26.377Z,70.44
2023-03-23T22:56:57.947Z,70.54
2023-03-23T22:59:29.610Z,70.52
2023-03-23T23:04:08.906Z,69.86
2023-03-23T23:06:39.538Z,70.53
2023-03-23T23:09:10.379Z,70.37
2023-03-23T23:11:41.171Z,70.68
2023-03-23T23:14:11.436Z,70.52
2023-03-23T23:16:42.214Z,70.79
2023-03-23T23:19:12.342Z,70.63
2023-03-23T23:21:43.541Z,70.75
2023-03-23T23:24:13.916Z,70.93
2023-03-23T23:26:44.248Z,71.25
2023-03-23T23:29:14.802Z,71.20
2023-03-23T23:31:45.507Z,71.03
2023-03-23T23:34:16.726Z,70.90
2023-03-23T23:36:48.027Z,71.15
2023-03-23T23:39:18.639Z,71.04
2023-03-23T23:41:50.004Z,70.91
2023-03-23T23:44:20.429Z,71.34
2023-03-23T23:46:50.727Z,70.99
2023-03-23T23:49:25.302Z,71.15
2023-03-23T23:51:55.691Z,70.97
2023-03-23T23:54:31.983Z,71.36
2023-03-23T23:57:03.772Z,70.92
2023-03-23T23:59:34.190Z,70.88
